Weather History for Erie, CO

Change the Weather History Date:

Tuesday, January 21, 2014

  Actual Average (KBJC) Record (KBJC)
Temperature  
Mean Temperature 40 °F -  
Max Temperature 63 °F 44 °F 71 °F (2009)
Min Temperature 16 °F 25 °F 2 °F (1991)
Degree Days  
Heating Degree Days 26    
Moisture  
Dew Point 0 °F    
Average Humidity 31    
Maximum Humidity 90    
Minimum Humidity 4    
Precipitation  
Precipitation 0.00 in - - ()
Sea Level Pressure  
Sea Level Pressure 30.15 in    
Wind  
Wind Speed 7 mph (SW)    
Max Wind Speed 24 mph    
Max Gust Speed 31 mph    
Visibility 10 miles    
Events      
Averages and records for this station are not official NWS values.
T = Trace of Precipitation, MM = Missing Value Source: NWS Daily Summary

Daily Weather History Graph

Daily Weather History Graph

Search for Another Location

Airport:

Trip Planner

Search our weather history database for the weather conditions in past years. The results will help you decide how hot, cold, wet, or windy it might be!

Date:

Astronomy

Jan. 21, 2014 Rise Set
Actual Time 7:17 AM MST 5:06 PM MST
Civil Twilight 6:47 AM MST 5:35 PM MST
Nautical Twilight 6:14 AM MST 6:08 PM MST
Astronomical Twilight 5:42 AM MST 6:40 PM MST
Moon 10:41 PM MST (1/21) 9:48 AM MST (1/21)
Length of Visible Light 10h 47m
Length of Day
9h 49m
Waning Gibbous, 74% of the Moon is Illuminated
Jan 21
Waning Gibbous
Jan 23
Last Quarter
Jan 30
New
Feb 6
First Quarter
Feb 14
Full

Hourly Weather History & Observations

Time (MST) Temp. Windchill Dew Point Humidity Pressure Visibility Wind Dir Wind Speed Gust Speed Precip Events Conditions
12:14 AM 21.6 °F - 15.6 °F 78% 30.32 in 10.0 mi Calm Calm - N/A   Clear
12:34 AM 21.0 °F - 15.1 °F 78% 30.31 in 10.0 mi Calm Calm - N/A   Clear
12:54 AM 19.0 °F - 14.9 °F 84% 30.30 in 10.0 mi Calm Calm - N/A   Clear
1:14 AM 19.2 °F 12.5 °F 15.6 °F 86% 30.30 in 10.0 mi SW 4.6 mph - N/A   Clear
1:34 AM 18.9 °F 10.8 °F 15.3 °F 86% 30.28 in 10.0 mi SSW 5.8 mph - N/A   Clear
1:54 AM 20.1 °F 13.6 °F 15.6 °F 83% 30.27 in 10.0 mi SSW 4.6 mph - N/A   Clear
2:14 AM 19.2 °F 12.5 °F 15.3 °F 85% 30.27 in 10.0 mi SW 4.6 mph - N/A   Clear
2:34 AM 19.4 °F 14.3 °F 15.4 °F 85% 30.26 in 10.0 mi South 3.5 mph - N/A   Clear
2:54 AM 18.1 °F 11.3 °F 14.2 °F 84% 30.26 in 10.0 mi SSW 4.6 mph - N/A   Clear
3:14 AM 16.0 °F - 13.5 °F 90% 30.25 in 10.0 mi Calm Calm - N/A   Clear
3:34 AM 16.9 °F - 13.6 °F 87% 30.24 in 10.0 mi Calm Calm - N/A   Clear
3:54 AM 16.2 °F 10.6 °F 12.7 °F 86% 30.23 in 10.0 mi SSW 3.5 mph - N/A   Clear
4:14 AM 16.2 °F - 12.0 °F 84% 30.22 in 10.0 mi Calm Calm - N/A   Clear
4:34 AM 17.1 °F - 12.4 °F 82% 30.21 in 10.0 mi Calm Calm - N/A   Clear
4:54 AM 19.4 °F 11.5 °F 11.3 °F 71% 30.20 in 10.0 mi SSW 5.8 mph - N/A   Clear
5:14 AM 20.3 °F 11.5 °F 11.3 °F 68% 30.19 in 10.0 mi SSW 6.9 mph - N/A   Clear
5:34 AM 21.6 °F 16.8 °F 10.4 °F 62% 30.18 in 10.0 mi SW 3.5 mph - N/A   Clear
5:54 AM 21.9 °F 17.2 °F 10.6 °F 62% 30.17 in 10.0 mi SSW 3.5 mph - N/A   Clear
6:14 AM 22.5 °F 14.1 °F 10.9 °F 61% 30.17 in 10.0 mi SW 6.9 mph - N/A   Clear
6:34 AM 29.8 °F 22.2 °F 6.8 °F 38% 30.17 in 10.0 mi West 8.1 mph - N/A   Clear
6:54 AM 35.2 °F 28.8 °F 2.5 °F 25% 30.16 in 10.0 mi WSW 8.1 mph - N/A   Clear
7:14 AM 34.7 °F - 2.5 °F 26% 30.16 in 10.0 mi Calm Calm - N/A   Clear
7:34 AM 33.1 °F 28.7 °F 3.9 °F 29% 30.15 in 10.0 mi SSE 4.6 mph - N/A   Clear
7:54 AM 37.9 °F 34.4 °F 4.1 °F 24% 30.15 in 10.0 mi WSW 4.6 mph - N/A   Clear
8:14 AM 41.9 °F 38.2 °F 3.4 °F 20% 30.15 in 10.0 mi SW 5.8 mph - N/A   Clear
8:34 AM 48.6 °F - -1.3 °F 13% 30.15 in 10.0 mi West 12.7 mph - N/A   Clear
8:54 AM 52.7 °F - -6.3 °F 9% 30.15 in 10.0 mi WSW 15.0 mph - N/A   Clear
9:14 AM 55.0 °F - -7.6 °F 7% 30.15 in 10.0 mi WSW 10.4 mph - N/A   Clear
9:34 AM 56.7 °F - -11.2 °F 6% 30.15 in 10.0 mi West 13.8 mph 20.7 mph N/A   Clear
9:54 AM 58.6 °F - -12.5 °F 5% 30.15 in 10.0 mi West 12.7 mph 19.6 mph N/A   Clear
10:14 AM 60.3 °F - -14.1 °F 5% 30.15 in 10.0 mi WSW 12.7 mph 17.3 mph N/A   Clear
10:34 AM 61.0 °F - -14.6 °F 4% 30.15 in 10.0 mi West 6.9 mph - N/A   Clear
10:54 AM 62.4 °F - -13.4 °F 4% 30.14 in 10.0 mi WSW 13.8 mph 24.2 mph N/A   Clear
11:14 AM 62.1 °F - -14.1 °F 4% 30.14 in 10.0 mi West 18.4 mph 31.1 mph N/A   Clear
11:34 AM 62.6 °F - -13.5 °F 4% 30.12 in 10.0 mi West 18.4 mph 29.9 mph N/A   Clear
11:52 AM 63.0 °F - -14.1 °F 4% 30.11 in 10.0 mi West 24.2 mph 28.8 mph N/A   Clear
12:34 PM - - - N/A% - - North - - N/A   Unknown
12:54 PM 63.5 °F - -15.2 °F 4% 30.08 in 10.0 mi WNW 16.1 mph 28.8 mph N/A   Clear
1:14 PM 63.5 °F - -16.1 °F 4% 30.08 in 10.0 mi West 16.1 mph 25.3 mph N/A   Clear
1:34 PM 63.9 °F - -14.4 °F 4% 30.07 in 10.0 mi West 18.4 mph 24.2 mph N/A   Clear
1:54 PM 63.7 °F - -13.4 °F 4% 30.07 in 10.0 mi West 17.3 mph 23.0 mph N/A   Clear
2:14 PM 63.0 °F - -13.7 °F 4% 30.06 in 10.0 mi WNW 18.4 mph 28.8 mph N/A   Clear
2:34 PM 63.3 °F - -13.7 °F 4% 30.06 in 10.0 mi WNW 18.4 mph 27.6 mph N/A   Clear
2:54 PM 63.1 °F - -15.0 °F 4% 30.06 in 10.0 mi WNW 21.9 mph 27.6 mph N/A   Clear
3:14 PM 62.8 °F - -16.8 °F 4% 30.06 in 10.0 mi WNW 16.1 mph 27.6 mph N/A   Clear
3:34 PM 62.1 °F - -14.8 °F 4% 30.07 in 10.0 mi West 11.5 mph 20.7 mph N/A   Clear
3:54 PM 61.3 °F - -19.3 °F 4% 30.07 in 10.0 mi West 10.4 mph - N/A   Clear
4:14 PM 59.4 °F - -14.4 °F 5% 30.07 in 10.0 mi WNW 11.5 mph 17.3 mph N/A   Clear
4:34 PM 56.3 °F - -11.6 °F 6% 30.07 in 10.0 mi NW 11.5 mph - N/A   Clear
4:54 PM 53.2 °F - -11.0 °F 7% 30.07 in 10.0 mi NW 9.2 mph - N/A   Clear
5:14 PM 50.4 °F - -11.2 °F 7% 30.09 in 10.0 mi WNW 11.5 mph - N/A   Clear
5:34 PM 48.6 °F - -11.2 °F 8% 30.09 in 10.0 mi West 10.4 mph - N/A   Clear
5:54 PM 47.8 °F - -9.9 °F 9% 30.09 in 10.0 mi WNW 5.8 mph 17.3 mph N/A   Clear
6:14 PM 45.9 °F - -9.2 °F 10% 30.11 in 10.0 mi Calm Calm - N/A   Clear
6:34 PM 46.8 °F - -10.3 °F 9% 30.10 in 10.0 mi WNW 3.5 mph - N/A   Clear
6:54 PM 36.7 °F 30.5 °F -2.2 °F 19% 30.11 in 10.0 mi SSE 8.1 mph - N/A   Clear
7:14 PM 43.7 °F 36.0 °F 2.3 °F 18% 30.11 in 10.0 mi SE 17.3 mph 23.0 mph N/A   Clear
7:34 PM 43.0 °F 35.1 °F 3.2 °F 19% 30.11 in 10.0 mi SE 17.3 mph - N/A   Clear
7:54 PM 42.3 °F 34.1 °F 4.1 °F 21% 30.11 in 10.0 mi SE 17.3 mph - N/A   Clear
8:14 PM 41.5 °F 34.2 °F 5.0 °F 22% 30.12 in 10.0 mi SE 13.8 mph 19.6 mph N/A   Clear
8:34 PM 41.4 °F 35.2 °F 5.0 °F 22% 30.12 in 10.0 mi SSE 10.4 mph - N/A   Clear
8:54 PM 40.8 °F 36.2 °F 5.0 °F 23% 30.12 in 10.0 mi SSE 6.9 mph - N/A   Clear
9:14 PM 41.0 °F 35.8 °F 4.6 °F 22% 30.13 in 10.0 mi South 8.1 mph - N/A   Clear
9:34 PM 39.7 °F 37.6 °F 4.6 °F 23% 30.13 in 10.0 mi South 3.5 mph - N/A   Clear
9:54 PM 39.7 °F 32.3 °F 5.5 °F 24% 30.13 in 10.0 mi SSE 12.7 mph - N/A   Clear
10:14 PM 39.4 °F 33.8 °F 5.9 °F 25% 30.13 in 10.0 mi SE 8.1 mph - N/A   Clear
10:34 PM 39.2 °F 32.0 °F 5.9 °F 25% 30.14 in 10.0 mi SSE 11.5 mph - N/A   Clear
10:54 PM 39.4 °F 34.5 °F 5.9 °F 25% 30.14 in 10.0 mi SSE 6.9 mph - N/A   Clear
11:14 PM 38.1 °F 32.9 °F 6.1 °F 26% 30.14 in 10.0 mi SSE 6.9 mph - N/A   Clear
11:34 PM 35.8 °F 33.0 °F 6.6 °F 30% 30.14 in 10.0 mi SW 3.5 mph - N/A   Clear
11:54 PM 34.7 °F - 5.7 °F 30% 30.14 in 10.0 mi Calm Calm - N/A   Clear